CheckWX is a tool to help pilots better visualize weather data.  It is not intended as a substitute for an official pre-flight weather briefing.

01:38:31 UTC

LHBP TAF
Budapest Ferenc Liszt International Airport
Budapest, Hungary
TAF LHBP 142315Z 1500/1524 07004KT CAVOK TEMPO 1500/1507 2700 BR BCFG BECMG 1507/1509 13006KT CAVOK

Oct-15@
00:00 UTC

Oct-15 @ 00:00 UTC

Oct-15@
07:00 UTC

Oct-15 @ 07:00 UTC

TAF LHBP 142315Z 1500/1524 07004KT CAVOK
Wind
  • 070° at 4 KTS
Conditions
No significant weather
Cloud Levels
  • No significant clouds

Oct-15@
00:00 UTC

Oct-15 @ 00:00 UTC

Oct-15@
07:00 UTC

Oct-15 @ 07:00 UTC

TEMPO 1500/1507 2700 BR BCFG

Temporary

Temporary Changes expected for less than half the time period

Conditions
Mist, Patches of Fog

Oct-15@
07:00 UTC

Oct-15 @ 07:00 UTC

Oct-16@
00:00 UTC

Oct-16 @ 00:00 UTC

BECMG 1507/1509 13006KT CAVOK

Becoming

Becoming Conditions expected by Tue, Oct 15, 2019 @ 09:00 UTC

Wind
  • 130° at 6 KTS
Conditions
No significant weather
Cloud Levels
  • No significant clouds